Flight Track Log - Related Links

Times and Time Zones

All times are in EDT time to prevent confusion due to time zone crossing. See the DLH917 flight status page for this flight to view local times or setup timezone preferences in your user account.

Time Position Orientation Groundspeed Altitude Reporting Facility
EDT Latitude Longitude Course Direction KTS MPH feet Rate Location/Type
Fri 02:12:00 PM 51.4145 0.0595 101° East  Level Estimated
Fri 02:13:00 PM 51.3984 0.1895 101° East  Level Estimated
Fri 02:14:00 PM 51.3822 0.3194 101° East  Level Estimated
Fri 02:15:00 PM 51.3658 0.4492 101° East  Level Estimated
Fri 02:16:00 PM 51.3493 0.5789 101° East  Level Estimated
Fri 02:17:00 PM 51.3326 0.7085 102° East  Level Estimated
Fri 02:18:00 PM 51.3158 0.8381 102° East  Level Estimated
Fri 02:19:00 PM 51.2988 0.9675 102° East  Level Estimated
Fri 02:20:00 PM 51.2817 1.0969 102° East  Level Estimated
Fri 02:21:00 PM 51.2645 1.2261 102° East  Level Estimated
Fri 02:22:00 PM 51.2471 1.3552 102° East  Level Estimated
Fri 02:23:00 PM 51.2296 1.4843 102° East  Level Estimated
Fri 02:24:00 PM 51.2119 1.6132 102° East  Level Estimated
Fri 02:25:00 PM 51.1941 1.7421 102° East  Level Estimated
Fri 02:26:00 PM 51.1761 1.8708 102° East  Level Estimated
Fri 02:27:00 PM 51.1581 1.9995 103° East  Level Estimated
Fri 02:28:00 PM 51.1398 2.1280 103° East  Level Estimated
Fri 02:29:00 PM 51.1214 2.2565 103° East  Level Estimated
Fri 02:30:00 PM 51.1029 2.3848 103° East  Level Estimated
Fri 02:31:00 PM 51.0843 2.5131 103° East  Level Estimated
Fri 02:32:00 PM 51.0654 2.6412 103° East  Level Estimated
Fri 02:33:00 PM 51.0465 2.7692 103° East  Level Estimated
Fri 02:34:00 PM 51.0274 2.8972 103° East  Level Estimated
Fri 02:35:00 PM 51.0082 3.0250 103° East  Level Estimated
Fri 02:36:00 PM 50.9888 3.1527 103° East  Level Estimated
Fri 02:37:00 PM 50.9693 3.2803 104° East  Level Estimated
Fri 02:38:00 PM 50.9497 3.4078 104° East  Level Estimated
Fri 02:39:00 PM 50.9300 3.5352 104° East  Level Estimated
Fri 02:40:00 PM 50.9100 3.6625 104° East  Level Estimated
Fri 02:41:00 PM 50.8900 3.7896 104° East  Level Estimated
Fri 02:42:00 PM 50.8698 3.9167 104° East  Level Estimated
Fri 02:43:00 PM 50.8495 4.0436 104° East  Level Estimated
Fri 02:44:00 PM 50.8290 4.1705 104° East  Level Estimated
Fri 02:45:00 PM 50.8084 4.2972 104° East  Level Estimated
Fri 02:46:00 PM 50.7877 4.4238 104° East  Level Estimated
Fri 02:47:00 PM 50.7668 4.5503 105° East  Level Estimated
Fri 02:48:00 PM 50.7458 4.6767 105° East  Level Estimated
Fri 02:49:00 PM 50.7246 4.8030 105° East  Level Estimated
Fri 02:50:00 PM 50.7034 4.9292 105° East  Level Estimated
Fri 02:51:00 PM 50.6819 5.0552 105° East  Level Estimated
Fri 02:52:00 PM 50.6604 5.1812 105° East  Level Estimated
Fri 02:53:00 PM 50.6387 5.3070 105° East  Level Estimated
Fri 02:54:00 PM 50.6169 5.4327 105° East  Level Estimated
Fri 02:55:00 PM 50.5949 5.5583 105° East  Level Estimated
Fri 02:56:00 PM 50.5728 5.6837 105° East  Level Estimated
Fri 02:57:00 PM 50.5506 5.8091 106° East  Level Estimated
Fri 02:58:00 PM 50.5282 5.9343 106° East  Level Estimated
Fri 02:59:00 PM 50.5057 6.0594 106° East  Level Estimated
Fri 03:00:00 PM 50.4831 6.1844 106° East  Level Estimated
Fri 03:01:00 PM 50.4603 6.3093 106° East  Level Estimated
Fri 03:02:00 PM 50.4374 6.4340 106° East  Level Estimated
Fri 03:03:00 PM 50.4144 6.5587 106° East  Level Estimated
Fri 03:04:00 PM 50.3912 6.6832 106° East  Level Estimated
Fri 03:05:00 PM 50.3679 6.8076 106° East  Level Estimated
Fri 03:06:00 PM 50.3445 6.9318 106° East  Level Estimated
Fri 03:07:00 PM 50.3209 7.0560 107° East  Level Estimated
Fri 03:08:00 PM 50.2972 7.1800 107° East  Level Estimated
Fri 03:09:00 PM 50.2734 7.3039 107° East  Level Estimated
Fri 03:10:00 PM 50.2494 7.4277 107° East  Level Estimated
Fri 03:11:00 PM 50.2253 7.5513 107° East  Level Estimated
Fri 03:12:00 PM 50.2011 7.6748 107° East  Level Estimated
Fri 03:13:00 PM 50.1768 7.7982 107° East  Level Estimated
Fri 03:14:00 PM 50.1523 7.9215 107° East  Level Estimated
Fri 03:15:00 PM 50.1277 8.0447 107° East  Level Estimated
Fri 03:16:00 PM 50.1029 8.1677 107° East  Level Estimated
Fri 03:17:00 PM 50.0780 8.2906 107° East  Level Estimated
Fri 03:18:00 PM 50.0530 8.4133 108° East  Level Estimated
Fri 03:19:00 PM 50.0279 8.5359 108° East  Level Estimated
Fri 03:20:00 PM 50.0264 8.5431 108° East  Level Estimated
Fri 03:21:00 PM 50.0264 8.5431 73° East  Level Estimated
Fri 03:22:00 PM 50.0264 8.5431 73° East  Level Estimated
Fri 03:23:00 PM 50.0264 8.5431 73° East  Level Estimated
Fri 03:24:00 PM 50.0264 8.5431 73° East  Level Estimated
Fri 03:25:00 PM 50.0264 8.5431 73° East  Level Estimated
Fri 03:26:00 PM 50.0264 8.5431 73° East  Level Estimated
Fri 03:27:00 PM 50.0264 8.5431 73° East  Level Estimated
Fri 03:28:00 PM 50.0264 8.5431 73° East  Level Estimated
Fri 03:29:00 PM 50.0264 8.5431 73° East  Level Estimated
Fri 03:30:00 PM 50.0264 8.5431 73° East  Level Estimated

Login

Don't have an account? Register now (free) for customized features, flight alerts, and more!